Morrisville, VT (05657)

11:47 PM EST on February 07, 2016 (GMT -0500)
Villiage-Town Line | | Change Station
CLOSE
Current Station
Personal Weather Station
Location: Morristown, VT
Elevation: 869 ft
Nearby Weather Stations

Elev 869 ft 44.55 °N, 72.58 °W | Updated 9 seconds ago

Clear
Clear
22.1 °F
Feels Like 11 °F
N
10.7
Wind Variable Wind from NE
Gusts 12.3 mph

Today
High -- | Low -- °F
--% Chance of Precip.
Yesterday
High -- | Low -- °F
Precip. -- in
Pressure 30.14 in
Visibility 10.0 miles
Clouds Clear
Windchill 11 °F
Dew Point -8 °F
Humidity 26%
Rainfall 0.00 in
Snow Depth Not available.
7:02 AM 5:07 PM
Waning Crescent, 0% visible
METAR KMVL 080354Z AUTO 36004KT 10SM CLR M04/M09 A3010 RMK AO2 SLP205 T10391094
Pressure 30.14 in
Visibility 10.0 miles
Clouds Clear
Windchill 11 °F
Dew Point -8 °F
Humidity 26%
Rainfall 0.00 in
Snow Depth Not available.
7:02 AM 5:07 PM
Waning Crescent, 0% visible
METAR KMVL 080354Z AUTO 36004KT 10SM CLR M04/M09 A3010 RMK AO2 SLP205 T10391094

10-Day Weather Forecast

Almanac

Astronomy

Feb. 07, 2016 Rise Set
Actual Time
Civil Twilight
Nautical Twilight
Astronomical Twilight
Moon
Length of Visible Light
Length of Day
Tomorrow will be .
, % of the Moon is Illuminated

Today's Extremes

State Highs State Lows

Community

WunderPhotos

Upload Photos

1,891,382 photos uploaded!

WunderBlog® & News

Nearby

Air Quality

  Air Quality AQ Index Pollutant
Not available.

Snow Depth

Station Depth Elevation

Earthquake Activity

City Distance Mag. Time & Date
Minimum magnitude displayed is 2.5.

Coastal Water Temperatures

Place Temperature

Stations

Nearby Weather Stations

Station Location Temp. Windchill Dew Point Humidity Wind Precip. Elev Updated Type
                   

Watches & Warnings

There are currently no watches in effect.